TimeEST,TemperatureF,Dew PointF,Humidity,Sea Level PressureIn,VisibilityMPH,Wind Direction,Wind SpeedMPH,Gust SpeedMPH,PrecipitationIn,Events,Conditions,WindDirDegrees,DateUTC
12:51 AM,44.1,34.0,68,29.60,-9999.0,NW,13.8,31.1,N/A,,Unknown,310,2012-12-04 05:51:00
1:51 AM,44.1,34.0,68,29.61,-9999.0,NW,17.3,32.2,N/A,,Unknown,310,2012-12-04 06:51:00
2:51 AM,43.0,33.1,68,29.63,-9999.0,NW,12.7,34.5,N/A,,Unknown,310,2012-12-04 07:51:00
3:51 AM,41.0,30.9,67,29.65,-9999.0,WNW,11.5,36.8,N/A,,Unknown,300,2012-12-04 08:51:00
4:51 AM,37.9,27.0,65,29.68,-9999.0,NW,13.8,41.4,N/A,,Unknown,320,2012-12-04 09:51:00
5:51 AM,35.1,24.1,64,29.71,-9999.0,NW,13.8,35.7,N/A,,Unknown,320,2012-12-04 10:51:00
6:51 AM,34.0,23.0,64,29.73,-9999.0,NW,12.7,28.8,N/A,,Unknown,320,2012-12-04 11:51:00
7:51 AM,33.1,23.0,66,29.76,-9999.0,NNW,19.6,40.3,N/A,,Unknown,330,2012-12-04 12:51:00
8:51 AM,32.0,21.9,66,29.80,-9999.0,NW,12.7,32.2,N/A,,Unknown,320,2012-12-04 13:51:00
9:51 AM,30.0,21.9,72,29.84,-9999.0,NNW,17.3,34.5,N/A,,Unknown,330,2012-12-04 14:51:00
10:51 AM,28.9,19.0,67,29.88,-9999.0,NNW,18.4,29.9,N/A,,Unknown,340,2012-12-04 15:51:00
11:51 AM,28.0,18.0,66,29.90,-9999.0,NNW,19.6,32.2,N/A,,Unknown,330,2012-12-04 16:51:00
12:51 PM,26.1,18.0,71,29.92,-9999.0,NNW,12.7,29.9,N/A,,Unknown,340,2012-12-04 17:51:00
1:51 PM,26.1,16.0,66,29.94,-9999.0,NNW,19.6,33.4,N/A,,Unknown,330,2012-12-04 18:51:00
2:51 PM,26.1,17.1,69,29.97,-9999.0,NW,12.7,33.4,N/A,,Unknown,320,2012-12-04 19:51:00
3:51 PM,27.0,19.0,72,30.00,-9999.0,NNW,26.5,40.3,N/A,,Unknown,340,2012-12-04 20:51:00
4:51 PM,27.0,18.0,69,30.06,-9999.0,NNW,26.5,41.4,N/A,,Unknown,340,2012-12-04 21:51:00
5:51 PM,28.0,19.9,72,30.09,-9999.0,North,31.1,39.1,N/A,,Unknown,350,2012-12-04 22:51:00
6:51 PM,28.9,21.0,72,30.11,-9999.0,North,27.6,36.8,N/A,,Unknown,350,2012-12-04 23:51:00
7:51 PM,28.9,19.9,69,30.14,-9999.0,North,26.5,36.8,N/A,,Unknown,360,2012-12-05 00:51:00
8:51 PM,30.0,19.9,66,30.16,-9999.0,North,27.6,33.4,N/A,,Unknown,10,2012-12-05 01:51:00
9:51 PM,30.0,19.9,66,30.19,-9999.0,NNE,29.9,36.8,N/A,,Unknown,20,2012-12-05 02:51:00
10:51 PM,28.9,19.0,67,30.23,-9999.0,NNE,28.8,38.0,N/A,,Unknown,20,2012-12-05 03:51:00
11:51 PM,28.9,18.0,64,30.25,-9999.0,NNE,28.8,35.7,N/A,,Unknown,20,2012-12-05 04:51:00